sensor_id;sensor_type;location;lat;lon;timestamp;P1;durP1;ratioP1;P2;durP2;ratioP2
28523;SDS011;15734;50.904;6.922;2023-09-08T00:00:49;17.63;;;8.73;;
28523;SDS011;15734;50.904;6.922;2023-09-08T00:03:15;11.85;;;8.15;;
28523;SDS011;15734;50.904;6.922;2023-09-08T00:05:41;11.27;;;7.97;;
28523;SDS011;15734;50.904;6.922;2023-09-08T00:08:06;13.80;;;7.95;;
28523;SDS011;15734;50.904;6.922;2023-09-08T00:10:32;11.57;;;8.50;;
28523;SDS011;15734;50.904;6.922;2023-09-08T00:12:57;17.38;;;8.55;;
28523;SDS011;15734;50.904;6.922;2023-09-08T00:15:23;10.73;;;8.43;;
28523;SDS011;15734;50.904;6.922;2023-09-08T00:17:48;12.88;;;8.18;;
28523;SDS011;15734;50.904;6.922;2023-09-08T00:20:14;13.13;;;8.90;;
28523;SDS011;15734;50.904;6.922;2023-09-08T00:22:40;11.52;;;8.70;;
28523;SDS011;15734;50.904;6.922;2023-09-08T00:25:06;12.52;;;8.48;;
28523;SDS011;15734;50.904;6.922;2023-09-08T00:27:31;19.92;;;8.93;;
28523;SDS011;15734;50.904;6.922;2023-09-08T00:29:57;13.95;;;9.20;;
28523;SDS011;15734;50.904;6.922;2023-09-08T00:32:23;14.10;;;8.80;;
28523;SDS011;15734;50.904;6.922;2023-09-08T00:34:49;15.57;;;8.48;;
28523;SDS011;15734;50.904;6.922;2023-09-08T00:37:14;15.50;;;8.68;;
28523;SDS011;15734;50.904;6.922;2023-09-08T00:39:40;12.70;;;9.30;;
28523;SDS011;15734;50.904;6.922;2023-09-08T00:42:05;12.77;;;8.85;;
28523;SDS011;15734;50.904;6.922;2023-09-08T00:44:32;13.80;;;8.93;;
28523;SDS011;15734;50.904;6.922;2023-09-08T00:46:58;14.68;;;8.43;;
28523;SDS011;15734;50.904;6.922;2023-09-08T00:49:24;14.43;;;8.60;;
28523;SDS011;15734;50.904;6.922;2023-09-08T00:51:50;13.95;;;9.75;;
28523;SDS011;15734;50.904;6.922;2023-09-08T00:54:16;14.25;;;9.73;;
28523;SDS011;15734;50.904;6.922;2023-09-08T00:56:43;15.30;;;10.23;;
28523;SDS011;15734;50.904;6.922;2023-09-08T00:59:10;12.73;;;8.45;;
28523;SDS011;15734;50.904;6.922;2023-09-08T01:01:36;14.50;;;8.35;;
28523;SDS011;15734;50.904;6.922;2023-09-08T01:04:02;13.18;;;9.13;;
28523;SDS011;15734;50.904;6.922;2023-09-08T01:06:27;12.90;;;9.05;;
28523;SDS011;15734;50.904;6.922;2023-09-08T01:08:53;17.45;;;8.32;;
28523;SDS011;15734;50.904;6.922;2023-09-08T01:11:20;14.10;;;9.93;;
28523;SDS011;15734;50.904;6.922;2023-09-08T01:13:47;16.25;;;9.65;;
28523;SDS011;15734;50.904;6.922;2023-09-08T01:16:12;12.25;;;8.23;;
28523;SDS011;15734;50.904;6.922;2023-09-08T01:18:38;14.43;;;8.50;;
28523;SDS011;15734;50.904;6.922;2023-09-08T01:23:59;15.68;;;9.55;;
28523;SDS011;15734;50.904;6.922;2023-09-08T01:26:48;13.20;;;8.57;;
28523;SDS011;15734;50.904;6.922;2023-09-08T01:29:13;17.40;;;9.23;;
28523;SDS011;15734;50.904;6.922;2023-09-08T01:31:41;13.73;;;8.40;;
28523;SDS011;15734;50.904;6.922;2023-09-08T01:34:07;12.00;;;8.70;;
28523;SDS011;15734;50.904;6.922;2023-09-08T01:36:34;16.20;;;8.60;;
28523;SDS011;15734;50.904;6.922;2023-09-08T01:39:00;16.65;;;8.98;;
28523;SDS011;15734;50.904;6.922;2023-09-08T01:41:26;22.17;;;9.30;;
28523;SDS011;15734;50.904;6.922;2023-09-08T01:43:52;15.13;;;7.97;;
28523;SDS011;15734;50.904;6.922;2023-09-08T01:46:17;15.43;;;9.52;;
28523;SDS011;15734;50.904;6.922;2023-09-08T01:48:43;14.77;;;8.80;;
28523;SDS011;15734;50.904;6.922;2023-09-08T01:51:09;16.80;;;9.32;;
28523;SDS011;15734;50.904;6.922;2023-09-08T01:53:34;23.60;;;9.02;;
28523;SDS011;15734;50.904;6.922;2023-09-08T01:56:00;23.67;;;9.73;;
28523;SDS011;15734;50.904;6.922;2023-09-08T01:58:26;17.50;;;8.98;;
28523;SDS011;15734;50.904;6.922;2023-09-08T02:00:51;12.98;;;8.38;;
28523;SDS011;15734;50.904;6.922;2023-09-08T02:03:17;15.07;;;9.07;;
28523;SDS011;15734;50.904;6.922;2023-09-08T02:05:42;11.95;;;8.65;;
28523;SDS011;15734;50.904;6.922;2023-09-08T02:08:09;11.95;;;8.68;;
28523;SDS011;15734;50.904;6.922;2023-09-08T02:10:35;14.60;;;8.40;;
28523;SDS011;15734;50.904;6.922;2023-09-08T02:13:00;11.82;;;7.68;;
28523;SDS011;15734;50.904;6.922;2023-09-08T02:15:26;13.90;;;8.27;;
28523;SDS011;15734;50.904;6.922;2023-09-08T02:17:54;14.57;;;9.15;;
28523;SDS011;15734;50.904;6.922;2023-09-08T02:20:21;12.50;;;8.30;;
28523;SDS011;15734;50.904;6.922;2023-09-08T02:22:46;14.70;;;8.40;;
28523;SDS011;15734;50.904;6.922;2023-09-08T02:25:15;15.00;;;8.82;;
28523;SDS011;15734;50.904;6.922;2023-09-08T02:27:41;15.40;;;8.68;;
28523;SDS011;15734;50.904;6.922;2023-09-08T02:30:07;15.05;;;7.70;;
28523;SDS011;15734;50.904;6.922;2023-09-08T02:32:33;14.68;;;8.25;;
28523;SDS011;15734;50.904;6.922;2023-09-08T02:34:58;20.90;;;8.43;;
28523;SDS011;15734;50.904;6.922;2023-09-08T02:37:24;12.48;;;8.50;;
28523;SDS011;15734;50.904;6.922;2023-09-08T02:39:49;18.95;;;8.43;;
28523;SDS011;15734;50.904;6.922;2023-09-08T02:42:15;15.32;;;8.07;;
28523;SDS011;15734;50.904;6.922;2023-09-08T02:44:40;12.75;;;7.93;;
28523;SDS011;15734;50.904;6.922;2023-09-08T02:47:06;12.13;;;8.13;;
28523;SDS011;15734;50.904;6.922;2023-09-08T02:49:32;10.95;;;7.47;;
28523;SDS011;15734;50.904;6.922;2023-09-08T02:51:57;12.32;;;8.13;;
28523;SDS011;15734;50.904;6.922;2023-09-08T02:54:23;11.13;;;8.07;;
28523;SDS011;15734;50.904;6.922;2023-09-08T02:56:48;12.25;;;8.02;;
28523;SDS011;15734;50.904;6.922;2023-09-08T02:59:14;12.18;;;8.00;;
28523;SDS011;15734;50.904;6.922;2023-09-08T03:01:39;13.68;;;7.38;;
28523;SDS011;15734;50.904;6.922;2023-09-08T03:04:05;16.35;;;8.68;;
28523;SDS011;15734;50.904;6.922;2023-09-08T03:06:30;13.57;;;8.48;;
28523;SDS011;15734;50.904;6.922;2023-09-08T03:08:58;14.90;;;8.10;;
28523;SDS011;15734;50.904;6.922;2023-09-08T03:11:24;15.35;;;8.15;;
28523;SDS011;15734;50.904;6.922;2023-09-08T03:13:49;15.95;;;8.73;;
28523;SDS011;15734;50.904;6.922;2023-09-08T03:16:15;13.23;;;7.90;;
28523;SDS011;15734;50.904;6.922;2023-09-08T03:18:41;13.93;;;8.75;;
28523;SDS011;15734;50.904;6.922;2023-09-08T03:21:06;15.15;;;8.45;;
28523;SDS011;15734;50.904;6.922;2023-09-08T03:23:39;13.07;;;8.98;;
28523;SDS011;15734;50.904;6.922;2023-09-08T03:26:05;11.13;;;8.40;;
28523;SDS011;15734;50.904;6.922;2023-09-08T03:28:32;16.27;;;8.23;;
28523;SDS011;15734;50.904;6.922;2023-09-08T03:30:59;10.48;;;7.70;;
28523;SDS011;15734;50.904;6.922;2023-09-08T03:33:25;17.00;;;9.27;;
28523;SDS011;15734;50.904;6.922;2023-09-08T03:35:51;13.98;;;7.40;;
28523;SDS011;15734;50.904;6.922;2023-09-08T03:38:16;13.07;;;8.52;;
28523;SDS011;15734;50.904;6.922;2023-09-08T03:40:42;17.80;;;7.85;;
28523;SDS011;15734;50.904;6.922;2023-09-08T03:43:07;16.25;;;8.43;;
28523;SDS011;15734;50.904;6.922;2023-09-08T03:45:33;14.05;;;9.05;;
28523;SDS011;15734;50.904;6.922;2023-09-08T03:47:58;13.27;;;9.00;;
28523;SDS011;15734;50.904;6.922;2023-09-08T03:50:24;14.77;;;8.38;;
28523;SDS011;15734;50.904;6.922;2023-09-08T03:52:50;12.57;;;8.93;;
28523;SDS011;15734;50.904;6.922;2023-09-08T03:55:15;17.65;;;9.55;;
28523;SDS011;15734;50.904;6.922;2023-09-08T03:57:42;12.63;;;9.02;;
28523;SDS011;15734;50.904;6.922;2023-09-08T04:00:07;14.52;;;8.93;;
28523;SDS011;15734;50.904;6.922;2023-09-08T04:02:35;18.10;;;9.95;;
28523;SDS011;15734;50.904;6.922;2023-09-08T04:05:01;12.50;;;9.15;;
28523;SDS011;15734;50.904;6.922;2023-09-08T04:07:27;13.90;;;9.27;;
28523;SDS011;15734;50.904;6.922;2023-09-08T04:09:52;12.23;;;9.20;;
28523;SDS011;15734;50.904;6.922;2023-09-08T04:12:18;12.65;;;8.68;;
28523;SDS011;15734;50.904;6.922;2023-09-08T04:14:43;10.68;;;8.18;;
28523;SDS011;15734;50.904;6.922;2023-09-08T04:17:09;13.60;;;8.43;;
28523;SDS011;15734;50.904;6.922;2023-09-08T04:19:35;15.57;;;8.82;;
28523;SDS011;15734;50.904;6.922;2023-09-08T04:22:00;11.43;;;8.05;;
28523;SDS011;15734;50.904;6.922;2023-09-08T04:24:26;14.27;;;9.02;;
28523;SDS011;15734;50.904;6.922;2023-09-08T04:26:51;12.35;;;8.40;;
28523;SDS011;15734;50.904;6.922;2023-09-08T04:29:17;15.48;;;8.65;;
28523;SDS011;15734;50.904;6.922;2023-09-08T04:31:42;16.58;;;9.50;;
28523;SDS011;15734;50.904;6.922;2023-09-08T04:34:08;16.75;;;9.20;;
28523;SDS011;15734;50.904;6.922;2023-09-08T04:36:33;13.43;;;8.63;;
28523;SDS011;15734;50.904;6.922;2023-09-08T04:38:59;20.13;;;8.77;;
28523;SDS011;15734;50.904;6.922;2023-09-08T04:41:24;15.35;;;9.18;;
28523;SDS011;15734;50.904;6.922;2023-09-08T04:43:50;13.90;;;9.07;;
28523;SDS011;15734;50.904;6.922;2023-09-08T04:46:15;11.68;;;8.48;;
28523;SDS011;15734;50.904;6.922;2023-09-08T04:48:41;14.50;;;8.63;;
28523;SDS011;15734;50.904;6.922;2023-09-08T04:51:07;18.63;;;9.82;;
28523;SDS011;15734;50.904;6.922;2023-09-08T04:53:32;15.15;;;9.63;;
28523;SDS011;15734;50.904;6.922;2023-09-08T04:55:58;18.60;;;9.25;;
28523;SDS011;15734;50.904;6.922;2023-09-08T04:58:24;12.55;;;8.10;;
28523;SDS011;15734;50.904;6.922;2023-09-08T05:00:50;18.35;;;11.27;;
28523;SDS011;15734;50.904;6.922;2023-09-08T05:03:16;14.35;;;9.10;;
28523;SDS011;15734;50.904;6.922;2023-09-08T05:05:41;17.15;;;9.50;;
28523;SDS011;15734;50.904;6.922;2023-09-08T05:08:07;13.73;;;8.52;;
28523;SDS011;15734;50.904;6.922;2023-09-08T05:10:32;15.13;;;9.20;;
28523;SDS011;15734;50.904;6.922;2023-09-08T05:12:58;14.25;;;8.95;;
28523;SDS011;15734;50.904;6.922;2023-09-08T05:15:23;15.15;;;8.43;;
28523;SDS011;15734;50.904;6.922;2023-09-08T05:17:50;17.17;;;9.43;;
28523;SDS011;15734;50.904;6.922;2023-09-08T05:20:15;13.25;;;8.13;;
28523;SDS011;15734;50.904;6.922;2023-09-08T05:22:41;12.02;;;8.18;;
28523;SDS011;15734;50.904;6.922;2023-09-08T05:25:07;11.02;;;8.45;;
28523;SDS011;15734;50.904;6.922;2023-09-08T05:27:34;14.23;;;8.80;;
28523;SDS011;15734;50.904;6.922;2023-09-08T05:29:59;12.38;;;8.63;;
28523;SDS011;15734;50.904;6.922;2023-09-08T05:32:25;11.40;;;7.70;;
28523;SDS011;15734;50.904;6.922;2023-09-08T05:34:51;13.77;;;8.85;;
28523;SDS011;15734;50.904;6.922;2023-09-08T05:37:16;13.65;;;8.18;;
28523;SDS011;15734;50.904;6.922;2023-09-08T05:39:42;14.88;;;8.60;;
28523;SDS011;15734;50.904;6.922;2023-09-08T05:42:07;15.90;;;8.40;;
28523;SDS011;15734;50.904;6.922;2023-09-08T05:44:33;11.38;;;7.60;;
28523;SDS011;15734;50.904;6.922;2023-09-08T05:46:58;13.70;;;8.60;;
28523;SDS011;15734;50.904;6.922;2023-09-08T05:49:24;14.98;;;8.45;;
28523;SDS011;15734;50.904;6.922;2023-09-08T05:51:49;13.50;;;8.25;;
28523;SDS011;15734;50.904;6.922;2023-09-08T05:54:15;15.98;;;8.32;;
28523;SDS011;15734;50.904;6.922;2023-09-08T05:56:40;12.77;;;8.38;;
28523;SDS011;15734;50.904;6.922;2023-09-08T05:59:06;14.10;;;7.53;;
28523;SDS011;15734;50.904;6.922;2023-09-08T06:01:32;13.90;;;7.47;;
28523;SDS011;15734;50.904;6.922;2023-09-08T06:03:57;12.55;;;7.43;;
28523;SDS011;15734;50.904;6.922;2023-09-08T06:06:23;13.75;;;7.13;;
28523;SDS011;15734;50.904;6.922;2023-09-08T06:08:50;12.80;;;7.70;;
28523;SDS011;15734;50.904;6.922;2023-09-08T06:11:15;11.60;;;7.47;;
28523;SDS011;15734;50.904;6.922;2023-09-08T06:13:41;17.38;;;8.27;;
28523;SDS011;15734;50.904;6.922;2023-09-08T06:16:07;9.93;;;7.28;;
28523;SDS011;15734;50.904;6.922;2023-09-08T06:18:33;14.18;;;7.53;;
28523;SDS011;15734;50.904;6.922;2023-09-08T06:21:05;15.90;;;8.15;;
28523;SDS011;15734;50.904;6.922;2023-09-08T06:23:31;19.13;;;7.22;;
28523;SDS011;15734;50.904;6.922;2023-09-08T06:25:56;11.60;;;7.70;;
28523;SDS011;15734;50.904;6.922;2023-09-08T06:28:25;12.43;;;6.85;;
28523;SDS011;15734;50.904;6.922;2023-09-08T06:30:52;13.70;;;6.78;;
28523;SDS011;15734;50.904;6.922;2023-09-08T06:33:17;13.07;;;7.13;;
28523;SDS011;15734;50.904;6.922;2023-09-08T06:35:43;11.98;;;7.47;;
28523;SDS011;15734;50.904;6.922;2023-09-08T06:38:09;14.63;;;7.13;;
28523;SDS011;15734;50.904;6.922;2023-09-08T06:40:34;12.15;;;7.10;;
28523;SDS011;15734;50.904;6.922;2023-09-08T06:43:00;16.98;;;8.02;;
28523;SDS011;15734;50.904;6.922;2023-09-08T06:45:25;11.00;;;7.03;;
28523;SDS011;15734;50.904;6.922;2023-09-08T06:47:51;11.45;;;7.15;;
28523;SDS011;15734;50.904;6.922;2023-09-08T06:50:19;17.80;;;7.40;;
28523;SDS011;15734;50.904;6.922;2023-09-08T06:52:46;10.85;;;6.45;;
28523;SDS011;15734;50.904;6.922;2023-09-08T06:55:11;13.02;;;7.45;;
28523;SDS011;15734;50.904;6.922;2023-09-08T06:57:38;13.93;;;7.30;;
28523;SDS011;15734;50.904;6.922;2023-09-08T07:00:04;15.88;;;7.18;;
28523;SDS011;15734;50.904;6.922;2023-09-08T07:02:31;10.80;;;6.00;;
28523;SDS011;15734;50.904;6.922;2023-09-08T07:04:57;11.07;;;6.38;;
28523;SDS011;15734;50.904;6.922;2023-09-08T07:07:23;10.68;;;7.32;;
28523;SDS011;15734;50.904;6.922;2023-09-08T07:09:48;10.05;;;7.60;;
28523;SDS011;15734;50.904;6.922;2023-09-08T07:12:14;12.77;;;6.13;;
28523;SDS011;15734;50.904;6.922;2023-09-08T07:14:39;9.55;;;6.05;;
28523;SDS011;15734;50.904;6.922;2023-09-08T07:17:05;12.45;;;7.40;;
28523;SDS011;15734;50.904;6.922;2023-09-08T07:19:30;10.75;;;6.28;;
28523;SDS011;15734;50.904;6.922;2023-09-08T07:21:56;8.75;;;5.88;;
28523;SDS011;15734;50.904;6.922;2023-09-08T07:24:21;13.25;;;6.70;;
28523;SDS011;15734;50.904;6.922;2023-09-08T07:26:47;19.55;;;6.70;;
28523;SDS011;15734;50.904;6.922;2023-09-08T07:29:13;10.50;;;6.60;;
28523;SDS011;15734;50.904;6.922;2023-09-08T07:31:39;13.82;;;6.55;;
28523;SDS011;15734;50.904;6.922;2023-09-08T07:34:04;14.15;;;6.20;;
28523;SDS011;15734;50.904;6.922;2023-09-08T07:36:30;12.57;;;6.60;;
28523;SDS011;15734;50.904;6.922;2023-09-08T07:38:55;8.95;;;6.35;;
28523;SDS011;15734;50.904;6.922;2023-09-08T07:41:21;13.50;;;5.78;;
28523;SDS011;15734;50.904;6.922;2023-09-08T07:43:46;10.05;;;6.22;;
28523;SDS011;15734;50.904;6.922;2023-09-08T07:46:12;8.77;;;6.60;;
28523;SDS011;15734;50.904;6.922;2023-09-08T07:48:37;8.82;;;5.13;;
28523;SDS011;15734;50.904;6.922;2023-09-08T07:51:03;23.60;;;7.72;;
28523;SDS011;15734;50.904;6.922;2023-09-08T07:53:28;11.75;;;6.03;;
28523;SDS011;15734;50.904;6.922;2023-09-08T07:55:54;15.50;;;6.90;;
28523;SDS011;15734;50.904;6.922;2023-09-08T07:58:20;11.68;;;5.95;;
28523;SDS011;15734;50.904;6.922;2023-09-08T08:00:46;9.65;;;6.13;;
28523;SDS011;15734;50.904;6.922;2023-09-08T08:03:11;16.30;;;6.13;;
28523;SDS011;15734;50.904;6.922;2023-09-08T08:05:37;14.15;;;6.13;;
28523;SDS011;15734;50.904;6.922;2023-09-08T08:08:02;8.55;;;5.80;;
28523;SDS011;15734;50.904;6.922;2023-09-08T08:10:28;15.55;;;6.60;;
28523;SDS011;15734;50.904;6.922;2023-09-08T08:12:54;12.02;;;5.53;;
28523;SDS011;15734;50.904;6.922;2023-09-08T08:15:20;9.82;;;5.45;;
28523;SDS011;15734;50.904;6.922;2023-09-08T08:17:46;11.52;;;5.50;;
28523;SDS011;15734;50.904;6.922;2023-09-08T08:20:12;14.98;;;5.57;;
28523;SDS011;15734;50.904;6.922;2023-09-08T08:22:42;9.00;;;5.22;;
28523;SDS011;15734;50.904;6.922;2023-09-08T08:25:10;8.52;;;5.63;;
28523;SDS011;15734;50.904;6.922;2023-09-08T08:27:36;11.77;;;5.88;;
28523;SDS011;15734;50.904;6.922;2023-09-08T08:30:02;13.95;;;5.47;;
28523;SDS011;15734;50.904;6.922;2023-09-08T08:32:28;9.05;;;5.90;;
28523;SDS011;15734;50.904;6.922;2023-09-08T08:34:54;8.15;;;5.78;;
28523;SDS011;15734;50.904;6.922;2023-09-08T08:37:20;11.05;;;5.55;;
28523;SDS011;15734;50.904;6.922;2023-09-08T08:39:45;8.60;;;5.45;;
28523;SDS011;15734;50.904;6.922;2023-09-08T08:42:11;13.05;;;6.22;;
28523;SDS011;15734;50.904;6.922;2023-09-08T08:44:37;11.35;;;5.93;;
28523;SDS011;15734;50.904;6.922;2023-09-08T08:47:03;13.95;;;5.97;;
28523;SDS011;15734;50.904;6.922;2023-09-08T08:49:32;12.00;;;5.20;;
28523;SDS011;15734;50.904;6.922;2023-09-08T08:51:58;7.13;;;5.03;;
28523;SDS011;15734;50.904;6.922;2023-09-08T08:54:25;6.47;;;5.03;;
28523;SDS011;15734;50.904;6.922;2023-09-08T08:56:51;10.02;;;5.05;;
28523;SDS011;15734;50.904;6.922;2023-09-08T08:59:17;8.35;;;4.72;;
28523;SDS011;15734;50.904;6.922;2023-09-08T09:01:43;8.05;;;5.70;;
28523;SDS011;15734;50.904;6.922;2023-09-08T09:04:09;10.70;;;5.22;;
28523;SDS011;15734;50.904;6.922;2023-09-08T09:06:35;15.35;;;5.47;;
28523;SDS011;15734;50.904;6.922;2023-09-08T09:09:01;8.88;;;5.00;;
28523;SDS011;15734;50.904;6.922;2023-09-08T09:11:29;6.95;;;4.82;;
28523;SDS011;15734;50.904;6.922;2023-09-08T09:13:56;12.52;;;4.72;;
28523;SDS011;15734;50.904;6.922;2023-09-08T09:16:22;14.73;;;5.35;;
28523;SDS011;15734;50.904;6.922;2023-09-08T09:21:21;17.15;;;5.50;;
28523;SDS011;15734;50.904;6.922;2023-09-08T09:23:46;9.32;;;5.18;;
28523;SDS011;15734;50.904;6.922;2023-09-08T09:26:12;9.75;;;5.35;;
28523;SDS011;15734;50.904;6.922;2023-09-08T09:28:49;14.95;;;5.85;;
28523;SDS011;15734;50.904;6.922;2023-09-08T09:31:16;11.18;;;4.70;;
28523;SDS011;15734;50.904;6.922;2023-09-08T09:34:00;12.57;;;4.78;;
28523;SDS011;15734;50.904;6.922;2023-09-08T09:36:29;8.98;;;4.97;;
28523;SDS011;15734;50.904;6.922;2023-09-08T09:38:57;7.85;;;5.20;;
28523;SDS011;15734;50.904;6.922;2023-09-08T09:41:24;9.82;;;4.78;;
28523;SDS011;15734;50.904;6.922;2023-09-08T09:43:51;15.38;;;5.28;;
28523;SDS011;15734;50.904;6.922;2023-09-08T09:46:16;12.20;;;4.97;;
28523;SDS011;15734;50.904;6.922;2023-09-08T09:48:42;14.75;;;5.35;;
28523;SDS011;15734;50.904;6.922;2023-09-08T09:51:16;7.15;;;5.20;;
28523;SDS011;15734;50.904;6.922;2023-09-08T09:53:44;12.93;;;4.30;;
28523;SDS011;15734;50.904;6.922;2023-09-08T09:56:10;11.30;;;4.93;;
28523;SDS011;15734;50.904;6.922;2023-09-08T09:58:37;17.17;;;6.03;;
28523;SDS011;15734;50.904;6.922;2023-09-08T10:01:03;10.43;;;5.18;;
28523;SDS011;15734;50.904;6.922;2023-09-08T10:03:30;10.48;;;5.13;;
28523;SDS011;15734;50.904;6.922;2023-09-08T10:05:57;11.82;;;5.28;;
28523;SDS011;15734;50.904;6.922;2023-09-08T10:08:23;9.95;;;4.70;;
28523;SDS011;15734;50.904;6.922;2023-09-08T10:10:49;10.27;;;4.63;;
28523;SDS011;15734;50.904;6.922;2023-09-08T10:13:18;15.18;;;5.32;;
28523;SDS011;15734;50.904;6.922;2023-09-08T10:15:52;10.75;;;4.72;;
28523;SDS011;15734;50.904;6.922;2023-09-08T10:18:21;7.65;;;5.03;;
28523;SDS011;15734;50.904;6.922;2023-09-08T10:20:48;5.13;;;4.18;;
28523;SDS011;15734;50.904;6.922;2023-09-08T10:23:21;8.23;;;4.75;;
28523;SDS011;15734;50.904;6.922;2023-09-08T10:25:53;6.88;;;4.68;;
28523;SDS011;15734;50.904;6.922;2023-09-08T10:28:24;9.50;;;4.93;;
28523;SDS011;15734;50.904;6.922;2023-09-08T10:30:50;8.18;;;5.10;;
28523;SDS011;15734;50.904;6.922;2023-09-08T10:33:16;10.65;;;4.90;;
28523;SDS011;15734;50.904;6.922;2023-09-08T10:35:43;9.60;;;5.28;;
28523;SDS011;15734;50.904;6.922;2023-09-08T10:38:23;8.77;;;5.00;;
28523;SDS011;15734;50.904;6.922;2023-09-08T10:40:52;11.98;;;4.78;;
28523;SDS011;15734;50.904;6.922;2023-09-08T10:43:18;5.80;;;4.70;;
28523;SDS011;15734;50.904;6.922;2023-09-08T10:45:45;10.70;;;4.95;;
28523;SDS011;15734;50.904;6.922;2023-09-08T10:48:11;14.18;;;4.50;;
28523;SDS011;15734;50.904;6.922;2023-09-08T10:50:39;11.35;;;5.30;;
28523;SDS011;15734;50.904;6.922;2023-09-08T10:55:46;9.98;;;5.05;;
28523;SDS011;15734;50.904;6.922;2023-09-08T10:58:20;11.88;;;4.72;;
28523;SDS011;15734;50.904;6.922;2023-09-08T11:00:56;8.27;;;5.00;;
28523;SDS011;15734;50.904;6.922;2023-09-08T11:03:26;8.32;;;5.13;;
28523;SDS011;15734;50.904;6.922;2023-09-08T11:06:08;6.93;;;4.40;;
28523;SDS011;15734;50.904;6.922;2023-09-08T11:08:36;8.70;;;4.60;;
28523;SDS011;15734;50.904;6.922;2023-09-08T11:11:12;9.85;;;4.60;;
28523;SDS011;15734;50.904;6.922;2023-09-08T11:13:39;8.80;;;4.80;;
28523;SDS011;15734;50.904;6.922;2023-09-08T11:16:05;8.88;;;4.60;;
28523;SDS011;15734;50.904;6.922;2023-09-08T11:18:31;14.07;;;4.55;;
28523;SDS011;15734;50.904;6.922;2023-09-08T11:21:01;8.38;;;4.07;;
28523;SDS011;15734;50.904;6.922;2023-09-08T11:23:28;11.52;;;4.07;;
28523;SDS011;15734;50.904;6.922;2023-09-08T11:25:54;14.73;;;5.22;;
28523;SDS011;15734;50.904;6.922;2023-09-08T11:28:23;7.93;;;5.40;;
28523;SDS011;15734;50.904;6.922;2023-09-08T11:30:49;9.15;;;4.45;;
28523;SDS011;15734;50.904;6.922;2023-09-08T11:33:15;9.00;;;4.38;;
28523;SDS011;15734;50.904;6.922;2023-09-08T11:35:42;5.32;;;3.92;;
28523;SDS011;15734;50.904;6.922;2023-09-08T11:38:10;5.43;;;4.53;;
28523;SDS011;15734;50.904;6.922;2023-09-08T11:40:36;9.30;;;4.30;;
28523;SDS011;15734;50.904;6.922;2023-09-08T11:43:02;9.30;;;4.32;;
28523;SDS011;15734;50.904;6.922;2023-09-08T11:45:30;6.60;;;4.68;;
28523;SDS011;15734;50.904;6.922;2023-09-08T11:47:56;8.38;;;4.50;;
28523;SDS011;15734;50.904;6.922;2023-09-08T11:50:22;10.63;;;4.28;;
28523;SDS011;15734;50.904;6.922;2023-09-08T11:52:52;5.22;;;4.32;;
28523;SDS011;15734;50.904;6.922;2023-09-08T11:55:19;6.00;;;4.20;;
28523;SDS011;15734;50.904;6.922;2023-09-08T11:57:47;5.32;;;4.30;;
28523;SDS011;15734;50.904;6.922;2023-09-08T12:00:28;11.90;;;4.55;;
28523;SDS011;15734;50.904;6.922;2023-09-08T12:02:54;5.13;;;3.70;;
28523;SDS011;15734;50.904;6.922;2023-09-08T12:05:23;7.10;;;4.45;;
28523;SDS011;15734;50.904;6.922;2023-09-08T12:07:54;10.65;;;5.05;;
28523;SDS011;15734;50.904;6.922;2023-09-08T12:10:24;5.43;;;3.90;;
28523;SDS011;15734;50.904;6.922;2023-09-08T12:12:53;9.25;;;4.85;;
28523;SDS011;15734;50.904;6.922;2023-09-08T12:18:05;17.27;;;4.50;;
28523;SDS011;15734;50.904;6.922;2023-09-08T12:20:33;8.25;;;4.07;;
28523;SDS011;15734;50.904;6.922;2023-09-08T12:23:03;6.60;;;3.95;;
28523;SDS011;15734;50.904;6.922;2023-09-08T12:25:30;10.25;;;4.13;;
28523;SDS011;15734;50.904;6.922;2023-09-08T12:27:57;6.28;;;4.38;;
28523;SDS011;15734;50.904;6.922;2023-09-08T12:30:23;23.17;;;6.10;;
28523;SDS011;15734;50.904;6.922;2023-09-08T12:32:57;6.80;;;4.20;;
28523;SDS011;15734;50.904;6.922;2023-09-08T12:35:24;8.35;;;3.95;;
28523;SDS011;15734;50.904;6.922;2023-09-08T12:38:08;11.10;;;4.53;;
28523;SDS011;15734;50.904;6.922;2023-09-08T12:40:34;14.43;;;5.03;;
28523;SDS011;15734;50.904;6.922;2023-09-08T12:43:01;18.75;;;5.10;;
28523;SDS011;15734;50.904;6.922;2023-09-08T12:45:27;12.88;;;4.13;;
28523;SDS011;15734;50.904;6.922;2023-09-08T12:47:53;5.80;;;3.95;;
28523;SDS011;15734;50.904;6.922;2023-09-08T12:50:23;7.95;;;5.03;;
28523;SDS011;15734;50.904;6.922;2023-09-08T12:52:49;10.73;;;4.95;;
28523;SDS011;15734;50.904;6.922;2023-09-08T12:55:15;9.68;;;4.50;;
28523;SDS011;15734;50.904;6.922;2023-09-08T12:57:41;8.40;;;5.03;;
28523;SDS011;15734;50.904;6.922;2023-09-08T13:00:06;9.45;;;4.70;;
28523;SDS011;15734;50.904;6.922;2023-09-08T13:02:32;7.57;;;4.70;;
28523;SDS011;15734;50.904;6.922;2023-09-08T13:04:58;11.98;;;4.40;;
28523;SDS011;15734;50.904;6.922;2023-09-08T13:07:24;5.97;;;4.50;;
28523;SDS011;15734;50.904;6.922;2023-09-08T13:09:50;8.05;;;4.30;;
28523;SDS011;15734;50.904;6.922;2023-09-08T13:12:16;8.68;;;4.55;;
28523;SDS011;15734;50.904;6.922;2023-09-08T13:14:42;8.80;;;4.95;;
28523;SDS011;15734;50.904;6.922;2023-09-08T13:17:11;5.60;;;4.32;;
28523;SDS011;15734;50.904;6.922;2023-09-08T13:19:37;5.30;;;4.20;;
28523;SDS011;15734;50.904;6.922;2023-09-08T13:22:06;10.98;;;4.80;;
28523;SDS011;15734;50.904;6.922;2023-09-08T13:24:32;8.20;;;4.43;;
28523;SDS011;15734;50.904;6.922;2023-09-08T13:26:59;12.80;;;4.68;;
28523;SDS011;15734;50.904;6.922;2023-09-08T13:29:25;12.70;;;5.18;;
28523;SDS011;15734;50.904;6.922;2023-09-08T13:31:52;7.90;;;4.95;;
28523;SDS011;15734;50.904;6.922;2023-09-08T13:34:17;6.63;;;4.70;;
28523;SDS011;15734;50.904;6.922;2023-09-08T13:36:43;6.90;;;4.07;;
28523;SDS011;15734;50.904;6.922;2023-09-08T13:39:09;12.55;;;4.55;;
28523;SDS011;15734;50.904;6.922;2023-09-08T13:41:47;7.20;;;4.60;;
28523;SDS011;15734;50.904;6.922;2023-09-08T13:44:15;7.72;;;4.03;;
28523;SDS011;15734;50.904;6.922;2023-09-08T13:46:42;11.30;;;4.78;;
28523;SDS011;15734;50.904;6.922;2023-09-08T13:49:07;5.50;;;4.30;;
28523;SDS011;15734;50.904;6.922;2023-09-08T13:51:32;7.40;;;4.72;;
28523;SDS011;15734;50.904;6.922;2023-09-08T13:53:58;10.23;;;4.80;;
28523;SDS011;15734;50.904;6.922;2023-09-08T13:56:24;7.80;;;5.00;;
28523;SDS011;15734;50.904;6.922;2023-09-08T13:58:51;6.40;;;5.00;;
28523;SDS011;15734;50.904;6.922;2023-09-08T14:01:16;9.13;;;5.20;;
28523;SDS011;15734;50.904;6.922;2023-09-08T14:03:42;8.50;;;4.78;;
28523;SDS011;15734;50.904;6.922;2023-09-08T14:06:08;7.03;;;4.47;;
28523;SDS011;15734;50.904;6.922;2023-09-08T14:08:33;9.35;;;4.95;;
28523;SDS011;15734;50.904;6.922;2023-09-08T14:10:59;16.85;;;5.03;;
28523;SDS011;15734;50.904;6.922;2023-09-08T14:13:24;7.88;;;3.83;;
28523;SDS011;15734;50.904;6.922;2023-09-08T14:15:50;9.75;;;5.25;;
28523;SDS011;15734;50.904;6.922;2023-09-08T14:18:15;5.68;;;4.75;;
28523;SDS011;15734;50.904;6.922;2023-09-08T14:20:41;6.13;;;4.57;;
28523;SDS011;15734;50.904;6.922;2023-09-08T14:23:07;5.28;;;4.22;;
28523;SDS011;15734;50.904;6.922;2023-09-08T14:25:33;7.80;;;4.28;;
28523;SDS011;15734;50.904;6.922;2023-09-08T14:27:59;6.43;;;4.70;;
28523;SDS011;15734;50.904;6.922;2023-09-08T14:30:28;12.50;;;5.47;;
28523;SDS011;15734;50.904;6.922;2023-09-08T14:32:54;6.60;;;4.50;;
28523;SDS011;15734;50.904;6.922;2023-09-08T14:35:19;16.33;;;5.53;;
28523;SDS011;15734;50.904;6.922;2023-09-08T14:37:46;5.75;;;4.57;;
28523;SDS011;15734;50.904;6.922;2023-09-08T14:40:12;7.78;;;5.80;;
28523;SDS011;15734;50.904;6.922;2023-09-08T14:42:38;6.45;;;4.80;;
28523;SDS011;15734;50.904;6.922;2023-09-08T14:45:04;14.80;;;4.70;;